sensor_id;sensor_type;location;lat;lon;timestamp;P1;durP1;ratioP1;P2;durP2;ratioP2
24008;SDS011;12217;50.792;4.372;2024-01-07T00:01:57;19.05;;;14.10;;
24008;SDS011;12217;50.792;4.372;2024-01-07T00:04:22;17.05;;;13.90;;
24008;SDS011;12217;50.792;4.372;2024-01-07T00:06:48;16.85;;;13.70;;
24008;SDS011;12217;50.792;4.372;2024-01-07T00:09:13;20.50;;;14.45;;
24008;SDS011;12217;50.792;4.372;2024-01-07T00:11:39;18.15;;;14.52;;
24008;SDS011;12217;50.792;4.372;2024-01-07T00:14:05;18.10;;;14.60;;
24008;SDS011;12217;50.792;4.372;2024-01-07T00:16:31;17.95;;;14.75;;
24008;SDS011;12217;50.792;4.372;2024-01-07T00:18:57;19.70;;;14.82;;
24008;SDS011;12217;50.792;4.372;2024-01-07T00:21:23;17.70;;;15.18;;
24008;SDS011;12217;50.792;4.372;2024-01-07T00:23:49;18.58;;;15.05;;
24008;SDS011;12217;50.792;4.372;2024-01-07T00:26:14;20.75;;;16.02;;
24008;SDS011;12217;50.792;4.372;2024-01-07T00:28:40;17.95;;;16.05;;
24008;SDS011;12217;50.792;4.372;2024-01-07T00:31:06;16.83;;;14.45;;
24008;SDS011;12217;50.792;4.372;2024-01-07T00:33:34;20.25;;;15.50;;
24008;SDS011;12217;50.792;4.372;2024-01-07T00:36:00;17.10;;;14.73;;
24008;SDS011;12217;50.792;4.372;2024-01-07T00:38:26;19.98;;;16.23;;
24008;SDS011;12217;50.792;4.372;2024-01-07T00:40:51;21.23;;;16.83;;
24008;SDS011;12217;50.792;4.372;2024-01-07T00:43:17;21.75;;;16.42;;
24008;SDS011;12217;50.792;4.372;2024-01-07T00:45:43;20.63;;;16.17;;
24008;SDS011;12217;50.792;4.372;2024-01-07T00:48:09;20.85;;;16.75;;
24008;SDS011;12217;50.792;4.372;2024-01-07T00:50:34;19.85;;;16.55;;
24008;SDS011;12217;50.792;4.372;2024-01-07T00:53:00;22.63;;;17.02;;
24008;SDS011;12217;50.792;4.372;2024-01-07T00:55:26;22.05;;;17.60;;
24008;SDS011;12217;50.792;4.372;2024-01-07T00:57:51;21.05;;;17.20;;
24008;SDS011;12217;50.792;4.372;2024-01-07T01:00:17;22.83;;;17.92;;
24008;SDS011;12217;50.792;4.372;2024-01-07T01:02:43;22.88;;;18.15;;
24008;SDS011;12217;50.792;4.372;2024-01-07T01:05:09;21.88;;;17.80;;
24008;SDS011;12217;50.792;4.372;2024-01-07T01:07:34;22.05;;;17.27;;
24008;SDS011;12217;50.792;4.372;2024-01-07T01:10:00;23.05;;;17.63;;
24008;SDS011;12217;50.792;4.372;2024-01-07T01:12:26;19.88;;;17.63;;
24008;SDS011;12217;50.792;4.372;2024-01-07T01:14:51;22.15;;;17.92;;
24008;SDS011;12217;50.792;4.372;2024-01-07T01:17:17;19.45;;;16.95;;
24008;SDS011;12217;50.792;4.372;2024-01-07T01:19:42;25.08;;;18.00;;
24008;SDS011;12217;50.792;4.372;2024-01-07T01:22:08;22.13;;;17.40;;
24008;SDS011;12217;50.792;4.372;2024-01-07T01:24:34;23.40;;;18.88;;
24008;SDS011;12217;50.792;4.372;2024-01-07T01:26:59;21.73;;;18.13;;
24008;SDS011;12217;50.792;4.372;2024-01-07T01:29:25;19.10;;;17.08;;
24008;SDS011;12217;50.792;4.372;2024-01-07T01:31:51;20.48;;;17.88;;
24008;SDS011;12217;50.792;4.372;2024-01-07T01:34:17;23.05;;;17.83;;
24008;SDS011;12217;50.792;4.372;2024-01-07T01:36:42;20.42;;;17.17;;
24008;SDS011;12217;50.792;4.372;2024-01-07T01:39:08;21.73;;;18.13;;
24008;SDS011;12217;50.792;4.372;2024-01-07T01:41:33;19.20;;;16.85;;
24008;SDS011;12217;50.792;4.372;2024-01-07T01:44:00;20.92;;;17.50;;
24008;SDS011;12217;50.792;4.372;2024-01-07T01:46:26;20.80;;;17.38;;
24008;SDS011;12217;50.792;4.372;2024-01-07T01:48:53;20.90;;;17.17;;
24008;SDS011;12217;50.792;4.372;2024-01-07T01:51:20;21.00;;;17.35;;
24008;SDS011;12217;50.792;4.372;2024-01-07T01:53:46;20.83;;;17.45;;
24008;SDS011;12217;50.792;4.372;2024-01-07T01:56:14;21.10;;;17.48;;
24008;SDS011;12217;50.792;4.372;2024-01-07T01:58:41;20.08;;;17.90;;
24008;SDS011;12217;50.792;4.372;2024-01-07T02:01:07;21.67;;;17.38;;
24008;SDS011;12217;50.792;4.372;2024-01-07T02:03:33;20.38;;;17.63;;
24008;SDS011;12217;50.792;4.372;2024-01-07T02:05:59;21.02;;;18.23;;
24008;SDS011;12217;50.792;4.372;2024-01-07T02:08:24;20.98;;;17.30;;
24008;SDS011;12217;50.792;4.372;2024-01-07T02:10:51;20.13;;;17.90;;
24008;SDS011;12217;50.792;4.372;2024-01-07T02:13:16;24.40;;;19.17;;
24008;SDS011;12217;50.792;4.372;2024-01-07T02:15:42;22.35;;;18.75;;
24008;SDS011;12217;50.792;4.372;2024-01-07T02:18:09;23.80;;;19.17;;
24008;SDS011;12217;50.792;4.372;2024-01-07T02:20:34;24.10;;;20.00;;
24008;SDS011;12217;50.792;4.372;2024-01-07T02:23:03;24.55;;;20.00;;
24008;SDS011;12217;50.792;4.372;2024-01-07T02:25:29;23.50;;;18.52;;
24008;SDS011;12217;50.792;4.372;2024-01-07T02:27:59;22.30;;;18.48;;
24008;SDS011;12217;50.792;4.372;2024-01-07T02:30:25;22.77;;;17.95;;
24008;SDS011;12217;50.792;4.372;2024-01-07T02:32:52;21.23;;;17.13;;
24008;SDS011;12217;50.792;4.372;2024-01-07T02:35:17;20.65;;;17.02;;
24008;SDS011;12217;50.792;4.372;2024-01-07T02:37:43;18.88;;;15.52;;
24008;SDS011;12217;50.792;4.372;2024-01-07T02:40:09;20.10;;;16.38;;
24008;SDS011;12217;50.792;4.372;2024-01-07T02:42:35;19.67;;;16.17;;
24008;SDS011;12217;50.792;4.372;2024-01-07T02:45:00;17.70;;;14.27;;
24008;SDS011;12217;50.792;4.372;2024-01-07T02:47:26;18.20;;;14.75;;
24008;SDS011;12217;50.792;4.372;2024-01-07T02:49:52;18.45;;;14.73;;
24008;SDS011;12217;50.792;4.372;2024-01-07T02:52:17;17.25;;;14.20;;
24008;SDS011;12217;50.792;4.372;2024-01-07T02:54:43;16.85;;;13.75;;
24008;SDS011;12217;50.792;4.372;2024-01-07T02:57:09;17.10;;;14.23;;
24008;SDS011;12217;50.792;4.372;2024-01-07T02:59:34;19.02;;;15.05;;
24008;SDS011;12217;50.792;4.372;2024-01-07T03:02:00;17.05;;;14.43;;
24008;SDS011;12217;50.792;4.372;2024-01-07T03:04:25;18.73;;;15.63;;
24008;SDS011;12217;50.792;4.372;2024-01-07T03:06:51;18.55;;;16.20;;
24008;SDS011;12217;50.792;4.372;2024-01-07T03:09:17;17.80;;;15.57;;
24008;SDS011;12217;50.792;4.372;2024-01-07T03:11:42;17.95;;;15.88;;
24008;SDS011;12217;50.792;4.372;2024-01-07T03:14:09;21.13;;;17.42;;
24008;SDS011;12217;50.792;4.372;2024-01-07T03:16:34;20.98;;;16.80;;
24008;SDS011;12217;50.792;4.372;2024-01-07T03:19:00;20.50;;;16.85;;
24008;SDS011;12217;50.792;4.372;2024-01-07T03:21:27;20.63;;;17.33;;
24008;SDS011;12217;50.792;4.372;2024-01-07T03:23:53;23.20;;;17.75;;
24008;SDS011;12217;50.792;4.372;2024-01-07T03:26:19;21.70;;;17.33;;
24008;SDS011;12217;50.792;4.372;2024-01-07T03:28:46;23.60;;;19.58;;
24008;SDS011;12217;50.792;4.372;2024-01-07T03:31:12;23.42;;;18.95;;
24008;SDS011;12217;50.792;4.372;2024-01-07T03:33:39;24.13;;;18.60;;
24008;SDS011;12217;50.792;4.372;2024-01-07T03:36:09;24.02;;;18.65;;
24008;SDS011;12217;50.792;4.372;2024-01-07T03:38:36;24.40;;;19.00;;
24008;SDS011;12217;50.792;4.372;2024-01-07T03:41:02;24.65;;;19.67;;
24008;SDS011;12217;50.792;4.372;2024-01-07T03:43:28;25.35;;;19.77;;
24008;SDS011;12217;50.792;4.372;2024-01-07T03:45:54;26.30;;;20.73;;
24008;SDS011;12217;50.792;4.372;2024-01-07T03:48:19;28.85;;;21.20;;
24008;SDS011;12217;50.792;4.372;2024-01-07T03:50:45;27.08;;;21.17;;
24008;SDS011;12217;50.792;4.372;2024-01-07T03:53:11;29.08;;;21.73;;
24008;SDS011;12217;50.792;4.372;2024-01-07T03:55:37;31.15;;;22.88;;
24008;SDS011;12217;50.792;4.372;2024-01-07T03:58:04;29.75;;;22.70;;
24008;SDS011;12217;50.792;4.372;2024-01-07T04:00:30;29.45;;;22.10;;
24008;SDS011;12217;50.792;4.372;2024-01-07T04:02:56;28.30;;;22.35;;
24008;SDS011;12217;50.792;4.372;2024-01-07T04:05:22;29.48;;;23.48;;
24008;SDS011;12217;50.792;4.372;2024-01-07T04:07:47;31.77;;;23.08;;
24008;SDS011;12217;50.792;4.372;2024-01-07T04:10:16;30.58;;;23.73;;
24008;SDS011;12217;50.792;4.372;2024-01-07T04:12:42;33.13;;;23.92;;
24008;SDS011;12217;50.792;4.372;2024-01-07T04:15:08;31.95;;;24.33;;
24008;SDS011;12217;50.792;4.372;2024-01-07T04:17:34;31.85;;;25.10;;
24008;SDS011;12217;50.792;4.372;2024-01-07T04:20:00;34.63;;;26.15;;
24008;SDS011;12217;50.792;4.372;2024-01-07T04:22:25;34.15;;;25.60;;
24008;SDS011;12217;50.792;4.372;2024-01-07T04:24:51;33.15;;;25.50;;
24008;SDS011;12217;50.792;4.372;2024-01-07T04:27:17;32.67;;;25.58;;
24008;SDS011;12217;50.792;4.372;2024-01-07T04:29:42;35.03;;;27.30;;
24008;SDS011;12217;50.792;4.372;2024-01-07T04:32:08;34.72;;;26.20;;
24008;SDS011;12217;50.792;4.372;2024-01-07T04:34:33;36.38;;;26.40;;
24008;SDS011;12217;50.792;4.372;2024-01-07T04:36:59;39.15;;;26.73;;
24008;SDS011;12217;50.792;4.372;2024-01-07T04:39:25;38.63;;;28.10;;
24008;SDS011;12217;50.792;4.372;2024-01-07T04:41:51;36.63;;;28.02;;
24008;SDS011;12217;50.792;4.372;2024-01-07T04:44:16;39.42;;;28.88;;
24008;SDS011;12217;50.792;4.372;2024-01-07T04:46:42;39.40;;;29.00;;
24008;SDS011;12217;50.792;4.372;2024-01-07T04:49:08;42.28;;;30.27;;
24008;SDS011;12217;50.792;4.372;2024-01-07T04:51:33;45.38;;;32.45;;
24008;SDS011;12217;50.792;4.372;2024-01-07T04:53:59;46.08;;;32.63;;
24008;SDS011;12217;50.792;4.372;2024-01-07T04:56:24;47.33;;;34.00;;
24008;SDS011;12217;50.792;4.372;2024-01-07T04:58:50;48.08;;;32.88;;
24008;SDS011;12217;50.792;4.372;2024-01-07T05:01:16;48.90;;;33.22;;
24008;SDS011;12217;50.792;4.372;2024-01-07T05:03:41;48.13;;;32.63;;
24008;SDS011;12217;50.792;4.372;2024-01-07T05:06:10;48.25;;;33.80;;
24008;SDS011;12217;50.792;4.372;2024-01-07T05:08:36;45.50;;;32.75;;
24008;SDS011;12217;50.792;4.372;2024-01-07T05:11:03;44.78;;;31.52;;
24008;SDS011;12217;50.792;4.372;2024-01-07T05:13:29;47.05;;;33.35;;
24008;SDS011;12217;50.792;4.372;2024-01-07T05:15:55;48.72;;;33.42;;
24008;SDS011;12217;50.792;4.372;2024-01-07T05:18:24;45.78;;;33.13;;
24008;SDS011;12217;50.792;4.372;2024-01-07T05:20:50;51.55;;;36.03;;
24008;SDS011;12217;50.792;4.372;2024-01-07T05:23:16;51.92;;;36.25;;
24008;SDS011;12217;50.792;4.372;2024-01-07T05:25:43;48.75;;;35.75;;
24008;SDS011;12217;50.792;4.372;2024-01-07T05:28:09;48.33;;;34.75;;
24008;SDS011;12217;50.792;4.372;2024-01-07T05:30:35;48.45;;;34.67;;
24008;SDS011;12217;50.792;4.372;2024-01-07T05:33:01;47.60;;;35.05;;
24008;SDS011;12217;50.792;4.372;2024-01-07T05:35:27;49.65;;;35.65;;
24008;SDS011;12217;50.792;4.372;2024-01-07T05:37:52;49.67;;;35.08;;
24008;SDS011;12217;50.792;4.372;2024-01-07T05:40:18;49.28;;;34.17;;
24008;SDS011;12217;50.792;4.372;2024-01-07T05:42:44;49.90;;;34.58;;
24008;SDS011;12217;50.792;4.372;2024-01-07T05:45:09;49.85;;;34.97;;
24008;SDS011;12217;50.792;4.372;2024-01-07T05:47:35;47.90;;;33.20;;
24008;SDS011;12217;50.792;4.372;2024-01-07T05:50:01;48.22;;;34.88;;
24008;SDS011;12217;50.792;4.372;2024-01-07T05:52:27;48.13;;;33.17;;
24008;SDS011;12217;50.792;4.372;2024-01-07T05:54:53;47.38;;;33.72;;
24008;SDS011;12217;50.792;4.372;2024-01-07T05:57:18;46.20;;;33.17;;
24008;SDS011;12217;50.792;4.372;2024-01-07T05:59:44;47.80;;;34.55;;
24008;SDS011;12217;50.792;4.372;2024-01-07T06:02:10;47.03;;;33.75;;
24008;SDS011;12217;50.792;4.372;2024-01-07T06:04:37;47.38;;;34.08;;
24008;SDS011;12217;50.792;4.372;2024-01-07T06:07:03;49.30;;;33.83;;
24008;SDS011;12217;50.792;4.372;2024-01-07T06:09:29;50.50;;;34.85;;
24008;SDS011;12217;50.792;4.372;2024-01-07T06:11:55;44.53;;;31.58;;
24008;SDS011;12217;50.792;4.372;2024-01-07T06:14:21;48.08;;;33.22;;
24008;SDS011;12217;50.792;4.372;2024-01-07T06:16:47;45.95;;;32.45;;
24008;SDS011;12217;50.792;4.372;2024-01-07T06:19:13;47.33;;;32.95;;
24008;SDS011;12217;50.792;4.372;2024-01-07T06:21:39;47.65;;;34.28;;
24008;SDS011;12217;50.792;4.372;2024-01-07T06:24:07;46.88;;;32.75;;
24008;SDS011;12217;50.792;4.372;2024-01-07T06:26:33;47.97;;;33.00;;
24008;SDS011;12217;50.792;4.372;2024-01-07T06:28:59;47.55;;;32.75;;
24008;SDS011;12217;50.792;4.372;2024-01-07T06:31:25;47.35;;;32.88;;
24008;SDS011;12217;50.792;4.372;2024-01-07T06:33:51;48.38;;;32.55;;
24008;SDS011;12217;50.792;4.372;2024-01-07T06:36:17;46.30;;;32.40;;
24008;SDS011;12217;50.792;4.372;2024-01-07T06:38:42;47.53;;;32.53;;
24008;SDS011;12217;50.792;4.372;2024-01-07T06:41:11;51.03;;;33.90;;
24008;SDS011;12217;50.792;4.372;2024-01-07T06:43:37;48.72;;;33.00;;
24008;SDS011;12217;50.792;4.372;2024-01-07T06:46:03;46.10;;;32.35;;
24008;SDS011;12217;50.792;4.372;2024-01-07T06:48:29;47.70;;;32.92;;
24008;SDS011;12217;50.792;4.372;2024-01-07T06:50:55;47.90;;;31.85;;
24008;SDS011;12217;50.792;4.372;2024-01-07T06:53:21;45.00;;;31.70;;
24008;SDS011;12217;50.792;4.372;2024-01-07T06:55:46;47.78;;;32.60;;
24008;SDS011;12217;50.792;4.372;2024-01-07T06:58:12;49.28;;;31.95;;
24008;SDS011;12217;50.792;4.372;2024-01-07T07:00:38;45.40;;;30.92;;
24008;SDS011;12217;50.792;4.372;2024-01-07T07:03:03;47.08;;;31.33;;
24008;SDS011;12217;50.792;4.372;2024-01-07T07:05:30;48.88;;;31.02;;
24008;SDS011;12217;50.792;4.372;2024-01-07T07:07:56;49.22;;;31.88;;
24008;SDS011;12217;50.792;4.372;2024-01-07T07:10:22;49.25;;;30.73;;
24008;SDS011;12217;50.792;4.372;2024-01-07T07:12:47;47.33;;;30.42;;
24008;SDS011;12217;50.792;4.372;2024-01-07T07:15:13;49.30;;;32.70;;
24008;SDS011;12217;50.792;4.372;2024-01-07T07:17:39;47.60;;;31.35;;
24008;SDS011;12217;50.792;4.372;2024-01-07T07:20:05;49.88;;;30.75;;
24008;SDS011;12217;50.792;4.372;2024-01-07T07:22:31;54.08;;;32.97;;
24008;SDS011;12217;50.792;4.372;2024-01-07T07:24:57;54.28;;;31.40;;
24008;SDS011;12217;50.792;4.372;2024-01-07T07:27:22;50.97;;;32.72;;
24008;SDS011;12217;50.792;4.372;2024-01-07T07:29:48;52.67;;;31.95;;
24008;SDS011;12217;50.792;4.372;2024-01-07T07:32:14;53.85;;;31.10;;
24008;SDS011;12217;50.792;4.372;2024-01-07T07:34:40;51.08;;;30.77;;
24008;SDS011;12217;50.792;4.372;2024-01-07T07:37:05;52.58;;;32.20;;
24008;SDS011;12217;50.792;4.372;2024-01-07T07:39:31;53.25;;;32.33;;
24008;SDS011;12217;50.792;4.372;2024-01-07T07:41:56;51.70;;;32.33;;
24008;SDS011;12217;50.792;4.372;2024-01-07T07:44:22;52.05;;;32.22;;
24008;SDS011;12217;50.792;4.372;2024-01-07T07:46:47;55.33;;;31.92;;
24008;SDS011;12217;50.792;4.372;2024-01-07T07:49:13;53.55;;;33.13;;
24008;SDS011;12217;50.792;4.372;2024-01-07T07:51:40;59.55;;;35.10;;
24008;SDS011;12217;50.792;4.372;2024-01-07T07:54:06;56.42;;;33.05;;
24008;SDS011;12217;50.792;4.372;2024-01-07T07:56:32;58.53;;;35.08;;
24008;SDS011;12217;50.792;4.372;2024-01-07T07:58:57;60.15;;;34.20;;
24008;SDS011;12217;50.792;4.372;2024-01-07T08:01:23;61.20;;;35.10;;
24008;SDS011;12217;50.792;4.372;2024-01-07T08:03:49;58.13;;;35.10;;
24008;SDS011;12217;50.792;4.372;2024-01-07T08:06:14;60.88;;;35.28;;
24008;SDS011;12217;50.792;4.372;2024-01-07T08:08:40;61.58;;;36.85;;
24008;SDS011;12217;50.792;4.372;2024-01-07T08:11:05;66.25;;;37.38;;
24008;SDS011;12217;50.792;4.372;2024-01-07T08:13:34;64.32;;;37.70;;
24008;SDS011;12217;50.792;4.372;2024-01-07T08:16:01;58.70;;;36.38;;
24008;SDS011;12217;50.792;4.372;2024-01-07T08:18:27;62.53;;;37.05;;
24008;SDS011;12217;50.792;4.372;2024-01-07T08:20:53;58.95;;;34.90;;
24008;SDS011;12217;50.792;4.372;2024-01-07T08:23:19;58.50;;;35.00;;
24008;SDS011;12217;50.792;4.372;2024-01-07T08:25:44;58.90;;;34.00;;
24008;SDS011;12217;50.792;4.372;2024-01-07T08:28:10;58.40;;;35.45;;
24008;SDS011;12217;50.792;4.372;2024-01-07T08:30:36;56.60;;;34.90;;
24008;SDS011;12217;50.792;4.372;2024-01-07T08:33:02;58.28;;;34.25;;
24008;SDS011;12217;50.792;4.372;2024-01-07T08:35:27;56.00;;;35.50;;
24008;SDS011;12217;50.792;4.372;2024-01-07T08:37:53;55.72;;;33.63;;
24008;SDS011;12217;50.792;4.372;2024-01-07T08:40:18;55.60;;;32.03;;
24008;SDS011;12217;50.792;4.372;2024-01-07T08:42:44;50.60;;;32.38;;
24008;SDS011;12217;50.792;4.372;2024-01-07T08:45:10;55.00;;;32.75;;
24008;SDS011;12217;50.792;4.372;2024-01-07T08:47:36;56.72;;;31.77;;
24008;SDS011;12217;50.792;4.372;2024-01-07T08:50:02;51.78;;;29.73;;
24008;SDS011;12217;50.792;4.372;2024-01-07T08:52:28;55.25;;;31.33;;
24008;SDS011;12217;50.792;4.372;2024-01-07T08:54:54;45.13;;;29.35;;
24008;SDS011;12217;50.792;4.372;2024-01-07T08:57:20;41.92;;;26.77;;
24008;SDS011;12217;50.792;4.372;2024-01-07T08:59:46;43.97;;;28.05;;
24008;SDS011;12217;50.792;4.372;2024-01-07T09:02:11;40.45;;;26.20;;
24008;SDS011;12217;50.792;4.372;2024-01-07T09:04:38;41.40;;;27.23;;
24008;SDS011;12217;50.792;4.372;2024-01-07T09:07:04;38.33;;;25.02;;
24008;SDS011;12217;50.792;4.372;2024-01-07T09:09:30;37.70;;;26.13;;
24008;SDS011;12217;50.792;4.372;2024-01-07T09:11:55;40.50;;;26.88;;
24008;SDS011;12217;50.792;4.372;2024-01-07T09:14:22;36.50;;;25.85;;
24008;SDS011;12217;50.792;4.372;2024-01-07T09:16:50;35.10;;;24.88;;
24008;SDS011;12217;50.792;4.372;2024-01-07T09:19:15;37.25;;;25.65;;
24008;SDS011;12217;50.792;4.372;2024-01-07T09:21:42;35.80;;;26.02;;
24008;SDS011;12217;50.792;4.372;2024-01-07T09:24:08;35.25;;;25.42;;
24008;SDS011;12217;50.792;4.372;2024-01-07T09:26:35;39.50;;;26.63;;
24008;SDS011;12217;50.792;4.372;2024-01-07T09:29:00;39.33;;;27.17;;
24008;SDS011;12217;50.792;4.372;2024-01-07T09:31:26;46.67;;;27.92;;
24008;SDS011;12217;50.792;4.372;2024-01-07T09:33:52;40.30;;;28.00;;
24008;SDS011;12217;50.792;4.372;2024-01-07T09:36:18;40.20;;;28.55;;
24008;SDS011;12217;50.792;4.372;2024-01-07T09:38:43;37.05;;;28.35;;
24008;SDS011;12217;50.792;4.372;2024-01-07T09:41:09;41.08;;;29.40;;
24008;SDS011;12217;50.792;4.372;2024-01-07T09:43:35;39.65;;;28.95;;
24008;SDS011;12217;50.792;4.372;2024-01-07T09:46:01;37.97;;;27.98;;
24008;SDS011;12217;50.792;4.372;2024-01-07T09:48:27;42.88;;;30.73;;
24008;SDS011;12217;50.792;4.372;2024-01-07T09:50:53;41.85;;;29.75;;
24008;SDS011;12217;50.792;4.372;2024-01-07T09:53:20;38.28;;;27.98;;
24008;SDS011;12217;50.792;4.372;2024-01-07T09:55:57;38.50;;;28.23;;
24008;SDS011;12217;50.792;4.372;2024-01-07T09:58:43;33.88;;;25.63;;
24008;SDS011;12217;50.792;4.372;2024-01-07T10:01:10;34.42;;;25.55;;
24008;SDS011;12217;50.792;4.372;2024-01-07T10:03:36;34.15;;;25.88;;
24008;SDS011;12217;50.792;4.372;2024-01-07T10:06:01;32.08;;;26.52;;
24008;SDS011;12217;50.792;4.372;2024-01-07T10:08:27;33.17;;;25.70;;
24008;SDS011;12217;50.792;4.372;2024-01-07T10:10:53;36.50;;;27.83;;
24008;SDS011;12217;50.792;4.372;2024-01-07T10:13:19;35.38;;;26.25;;
24008;SDS011;12217;50.792;4.372;2024-01-07T10:15:45;37.42;;;28.40;;
24008;SDS011;12217;50.792;4.372;2024-01-07T10:18:11;33.75;;;26.17;;
24008;SDS011;12217;50.792;4.372;2024-01-07T10:20:38;32.88;;;25.67;;
24008;SDS011;12217;50.792;4.372;2024-01-07T10:23:04;34.92;;;26.55;;
24008;SDS011;12217;50.792;4.372;2024-01-07T10:25:33;33.63;;;25.92;;
24008;SDS011;12217;50.792;4.372;2024-01-07T10:28:00;34.10;;;25.85;;
24008;SDS011;12217;50.792;4.372;2024-01-07T10:30:26;35.17;;;26.75;;
24008;SDS011;12217;50.792;4.372;2024-01-07T10:32:56;36.67;;;27.15;;
24008;SDS011;12217;50.792;4.372;2024-01-07T10:35:24;38.15;;;28.20;;
24008;SDS011;12217;50.792;4.372;2024-01-07T10:37:54;38.67;;;28.90;;
24008;SDS011;12217;50.792;4.372;2024-01-07T10:40:20;37.40;;;28.40;;
24008;SDS011;12217;50.792;4.372;2024-01-07T10:42:45;38.10;;;28.17;;
24008;SDS011;12217;50.792;4.372;2024-01-07T10:45:12;38.25;;;28.40;;
24008;SDS011;12217;50.792;4.372;2024-01-07T10:47:40;41.15;;;29.13;;
24008;SDS011;12217;50.792;4.372;2024-01-07T10:50:07;38.85;;;28.08;;
24008;SDS011;12217;50.792;4.372;2024-01-07T10:52:35;41.88;;;31.17;;
24008;SDS011;12217;50.792;4.372;2024-01-07T10:55:06;39.05;;;28.58;;
24008;SDS011;12217;50.792;4.372;2024-01-07T10:57:34;41.53;;;30.85;;
24008;SDS011;12217;50.792;4.372;2024-01-07T11:00:09;39.83;;;30.92;;
24008;SDS011;12217;50.792;4.372;2024-01-07T11:02:51;40.95;;;30.52;;
24008;SDS011;12217;50.792;4.372;2024-01-07T11:05:44;41.25;;;30.50;;
24008;SDS011;12217;50.792;4.372;2024-01-07T11:10:44;42.47;;;32.17;;
24008;SDS011;12217;50.792;4.372;2024-01-07T11:16:03;42.30;;;32.53;;
24008;SDS011;12217;50.792;4.372;2024-01-07T11:18:29;43.70;;;31.33;;
24008;SDS011;12217;50.792;4.372;2024-01-07T11:21:01;40.22;;;31.15;;
24008;SDS011;12217;50.792;4.372;2024-01-07T11:26:05;42.58;;;31.60;;
24008;SDS011;12217;50.792;4.372;2024-01-07T11:28:44;38.80;;;30.63;;
24008;SDS011;12217;50.792;4.372;2024-01-07T11:34:04;37.45;;;29.48;;
24008;SDS011;12217;50.792;4.372;2024-01-07T11:36:29;35.92;;;28.45;;
24008;SDS011;12217;50.792;4.372;2024-01-07T11:38:55;37.63;;;29.10;;
24008;SDS011;12217;50.792;4.372;2024-01-07T11:41:21;33.72;;;26.13;;
24008;SDS011;12217;50.792;4.372;2024-01-07T11:43:56;35.22;;;26.38;;
24008;SDS011;12217;50.792;4.372;2024-01-07T11:46:24;35.47;;;25.10;;
24008;SDS011;12217;50.792;4.372;2024-01-07T11:48:54;35.65;;;25.30;;
24008;SDS011;12217;50.792;4.372;2024-01-07T11:51:30;32.78;;;23.17;;
24008;SDS011;12217;50.792;4.372;2024-01-07T11:53:59;33.47;;;23.60;;
24008;SDS011;12217;50.792;4.372;2024-01-07T11:56:25;33.15;;;23.30;;
24008;SDS011;12217;50.792;4.372;2024-01-07T11:58:52;31.25;;;22.17;;
24008;SDS011;12217;50.792;4.372;2024-01-07T12:01:18;32.40;;;23.25;;
24008;SDS011;12217;50.792;4.372;2024-01-07T12:03:44;35.47;;;22.77;;
24008;SDS011;12217;50.792;4.372;2024-01-07T12:06:10;32.20;;;23.50;;
24008;SDS011;12217;50.792;4.372;2024-01-07T12:08:42;34.33;;;24.23;;
24008;SDS011;12217;50.792;4.372;2024-01-07T12:11:11;31.08;;;23.58;;
24008;SDS011;12217;50.792;4.372;2024-01-07T12:13:38;31.75;;;23.35;;
24008;SDS011;12217;50.792;4.372;2024-01-07T12:16:05;34.22;;;23.45;;
24008;SDS011;12217;50.792;4.372;2024-01-07T12:18:31;33.33;;;23.98;;
24008;SDS011;12217;50.792;4.372;2024-01-07T12:20:57;30.83;;;23.40;;
24008;SDS011;12217;50.792;4.372;2024-01-07T12:23:24;34.08;;;23.02;;
24008;SDS011;12217;50.792;4.372;2024-01-07T12:25:51;30.92;;;22.80;;
24008;SDS011;12217;50.792;4.372;2024-01-07T12:28:18;33.38;;;24.17;;
24008;SDS011;12217;50.792;4.372;2024-01-07T12:30:44;34.75;;;23.65;;
24008;SDS011;12217;50.792;4.372;2024-01-07T12:33:10;30.98;;;21.80;;
24008;SDS011;12217;50.792;4.372;2024-01-07T12:35:35;30.27;;;21.60;;
24008;SDS011;12217;50.792;4.372;2024-01-07T12:38:01;29.40;;;21.52;;
24008;SDS011;12217;50.792;4.372;2024-01-07T12:40:27;29.05;;;21.75;;
24008;SDS011;12217;50.792;4.372;2024-01-07T12:42:53;31.15;;;21.77;;
24008;SDS011;12217;50.792;4.372;2024-01-07T12:45:18;30.17;;;21.75;;
24008;SDS011;12217;50.792;4.372;2024-01-07T12:47:44;31.40;;;22.52;;
24008;SDS011;12217;50.792;4.372;2024-01-07T12:50:11;30.00;;;22.20;;
24008;SDS011;12217;50.792;4.372;2024-01-07T12:52:37;33.67;;;22.00;;
24008;SDS011;12217;50.792;4.372;2024-01-07T12:55:06;30.08;;;21.13;;
24008;SDS011;12217;50.792;4.372;2024-01-07T12:57:32;29.20;;;21.92;;
24008;SDS011;12217;50.792;4.372;2024-01-07T12:59:59;30.00;;;20.67;;
24008;SDS011;12217;50.792;4.372;2024-01-07T13:02:25;31.90;;;20.88;;
24008;SDS011;12217;50.792;4.372;2024-01-07T13:04:51;29.45;;;21.95;;
24008;SDS011;12217;50.792;4.372;2024-01-07T13:07:17;30.35;;;21.20;;
24008;SDS011;12217;50.792;4.372;2024-01-07T13:09:42;30.60;;;20.63;;
24008;SDS011;12217;50.792;4.372;2024-01-07T13:12:09;26.38;;;20.60;;
24008;SDS011;12217;50.792;4.372;2024-01-07T13:14:35;26.60;;;20.65;;
24008;SDS011;12217;50.792;4.372;2024-01-07T13:17:01;26.27;;;19.58;;
24008;SDS011;12217;50.792;4.372;2024-01-07T13:19:27;24.25;;;19.58;;
24008;SDS011;12217;50.792;4.372;2024-01-07T13:21:53;25.73;;;19.58;;
24008;SDS011;12217;50.792;4.372;2024-01-07T13:24:24;26.65;;;20.58;;
24008;SDS011;12217;50.792;4.372;2024-01-07T13:26:50;25.65;;;19.23;;
24008;SDS011;12217;50.792;4.372;2024-01-07T13:29:15;26.52;;;19.88;;
24008;SDS011;12217;50.792;4.372;2024-01-07T13:31:41;28.13;;;19.40;;
24008;SDS011;12217;50.792;4.372;2024-01-07T13:34:07;27.83;;;21.02;;
24008;SDS011;12217;50.792;4.372;2024-01-07T13:36:33;25.05;;;20.02;;
24008;SDS011;12217;50.792;4.372;2024-01-07T13:38:59;25.20;;;19.90;;
24008;SDS011;12217;50.792;4.372;2024-01-07T13:41:24;30.55;;;22.58;;
24008;SDS011;12217;50.792;4.372;2024-01-07T13:43:53;27.08;;;21.42;;
24008;SDS011;12217;50.792;4.372;2024-01-07T13:46:21;27.85;;;21.30;;
24008;SDS011;12217;50.792;4.372;2024-01-07T13:48:48;26.80;;;20.42;;
24008;SDS011;12217;50.792;4.372;2024-01-07T13:51:14;26.95;;;20.67;;
24008;SDS011;12217;50.792;4.372;2024-01-07T13:53:39;24.58;;;19.88;;
24008;SDS011;12217;50.792;4.372;2024-01-07T13:56:05;26.90;;;21.45;;
24008;SDS011;12217;50.792;4.372;2024-01-07T13:58:32;25.60;;;20.05;;
24008;SDS011;12217;50.792;4.372;2024-01-07T14:00:57;27.05;;;21.00;;
24008;SDS011;12217;50.792;4.372;2024-01-07T14:03:23;26.35;;;20.75;;
24008;SDS011;12217;50.792;4.372;2024-01-07T14:05:49;22.45;;;19.10;;
24008;SDS011;12217;50.792;4.372;2024-01-07T14:08:16;23.63;;;20.35;;
24008;SDS011;12217;50.792;4.372;2024-01-07T14:10:42;23.60;;;20.02;;
24008;SDS011;12217;50.792;4.372;2024-01-07T14:13:07;22.38;;;19.80;;
24008;SDS011;12217;50.792;4.372;2024-01-07T14:15:33;23.88;;;21.20;;
24008;SDS011;12217;50.792;4.372;2024-01-07T14:17:59;22.50;;;20.08;;
24008;SDS011;12217;50.792;4.372;2024-01-07T14:20:24;21.42;;;18.95;;
24008;SDS011;12217;50.792;4.372;2024-01-07T14:22:50;23.50;;;20.02;;
24008;SDS011;12217;50.792;4.372;2024-01-07T14:25:15;22.05;;;19.15;;
24008;SDS011;12217;50.792;4.372;2024-01-07T14:27:42;22.98;;;19.20;;